< < Back
Terminal Aerodrome Forecast


Current Version              Previous Versions:   1  2  3  4  5  6  7  8  9  

Terminal Aerodrome Forecast

023
FTUS42 KGSP 261740
TAFAND
TAF
KAND 261740Z 2618/2718 25007KT P6SM SCT030
      TEMPO 2618/2620 BKN025
     FM270500 22005KT P6SM BKN050
     FM271400 27012KT P6SM SCT060=

Latest METAR

287
SAUS70 KWBC 262100 RRC
MTRAND
METAR KAND 262056Z AUTO 24011KT 10SM CLR 14/00 A2999 RMK AO2 SLP153
T01390000 56005


USA.gov is the U.S. government's official web portal to all federal, state and local government web resources and services.